Time;durP1;ratioP1;P1;durP2;ratioP2;P2;SDS_P1;SDS_P2;PMS_P1;PMS_P2;Temp;Humidity;BMP_temperature;BMP_pressure;BME280_temperature;BME280_humidity;BME280_pressure;Samples;Min_cycle;Max_cycle;Signal;HPM_P1;HPM_P2
2023/07/02 00:01:35;;;;;;;21.42;8.50;;;16.20;99.90;;;;;;4978705;28;20420;-77
2023/07/02 00:04:01;;;;;;;26.80;10.30;;;16.20;99.90;;;;;;4961992;28;20434;-77
2023/07/02 00:06:26;;;;;;;29.25;9.82;;;16.10;99.90;;;;;;4926000;28;20429;-75
2023/07/02 00:08:52;;;;;;;21.23;8.90;;;16.20;99.90;;;;;;4990308;28;20823;-77
2023/07/02 00:11:18;;;;;;;23.00;8.60;;;16.30;99.90;;;;;;5006573;28;20409;-75
2023/07/02 00:13:43;;;;;;;21.23;9.07;;;16.20;99.90;;;;;;4981090;28;20501;-76
2023/07/02 00:16:09;;;;;;;24.10;10.85;;;16.10;99.90;;;;;;4948235;28;20589;-77
2023/07/02 00:18:35;;;;;;;22.10;9.70;;;16.20;99.90;;;;;;4915733;28;20952;-74
2023/07/02 00:21:04;;;;;;;20.67;8.80;;;16.20;99.90;;;;;;4955154;28;20442;-74
2023/07/02 00:23:30;;;;;;;19.52;8.82;;;16.20;99.90;;;;;;4889404;28;20442;-76
2023/07/02 00:25:57;;;;;;;25.08;10.27;;;16.10;99.90;;;;;;4918526;28;20437;-75
2023/07/02 00:28:22;;;;;;;23.65;9.25;;;16.10;99.90;;;;;;4901871;28;20447;-74
2023/07/02 00:30:48;;;;;;;23.65;9.18;;;16.00;99.90;;;;;;4933740;28;20493;-74
2023/07/02 00:33:14;;;;;;;25.98;10.90;;;16.10;99.90;;;;;;4893151;28;20455;-76
2023/07/02 00:35:40;;;;;;;19.98;8.75;;;16.00;99.90;;;;;;4923557;28;20466;-76
2023/07/02 00:38:06;;;;;;;18.63;9.27;;;16.10;99.90;;;;;;4926059;28;20434;-75
2023/07/02 00:40:31;;;;;;;24.00;9.93;;;16.00;99.90;;;;;;4965969;28;20462;-78
2023/07/02 00:42:57;;;;;;;23.47;10.67;;;16.00;99.90;;;;;;4891164;29;20415;-75
2023/07/02 00:45:26;;;;;;;19.50;9.60;;;16.00;99.90;;;;;;4934457;28;20959;-75
2023/07/02 00:47:54;;;;;;;28.55;11.43;;;15.90;99.90;;;;;;4970706;28;20963;-75
2023/07/02 00:50:22;;;;;;;21.17;9.15;;;16.00;99.90;;;;;;4982604;28;20442;-75
2023/07/02 00:52:48;;;;;;;23.55;9.60;;;15.80;99.90;;;;;;4916991;28;20434;-74
2023/07/02 00:55:13;;;;;;;22.85;10.25;;;15.80;99.90;;;;;;4933290;28;20509;-75
2023/07/02 00:57:40;;;;;;;22.83;11.50;;;15.80;99.90;;;;;;4890284;28;20554;-76
2023/07/02 01:00:07;;;;;;;24.33;9.47;;;15.80;99.90;;;;;;4899853;28;20779;-75
2023/07/02 01:02:33;;;;;;;23.80;10.40;;;15.70;99.90;;;;;;4959270;28;20426;-76
2023/07/02 01:04:59;;;;;;;26.45;11.10;;;15.60;99.90;;;;;;4960753;28;21019;-75
2023/07/02 01:07:25;;;;;;;31.73;10.68;;;15.70;99.90;;;;;;4892000;28;20797;-75
2023/07/02 01:09:51;;;;;;;23.02;9.65;;;15.70;99.90;;;;;;4960553;28;20434;-75
2023/07/02 01:12:21;;;;;;;27.02;9.57;;;15.50;99.90;;;;;;4883911;29;20770;-75
2023/07/02 01:14:51;;;;;;;25.45;10.73;;;15.60;99.90;;;;;;4983723;28;20437;-76
2023/07/02 01:17:19;;;;;;;23.52;9.60;;;15.60;99.90;;;;;;4920589;28;20441;-75
2023/07/02 01:19:51;;;;;;;23.55;10.10;;;15.50;99.90;;;;;;4939411;28;20449;-76
2023/07/02 01:22:27;;;;;;;25.88;10.57;;;15.50;99.90;;;;;;4918208;29;20503;-74
2023/07/02 01:24:54;;;;;;;30.10;11.75;;;15.50;99.90;;;;;;4912343;29;20440;-75
2023/07/02 01:27:20;;;;;;;28.88;10.93;;;15.40;99.90;;;;;;4984049;28;20421;-77
2023/07/02 01:29:47;;;;;;;24.13;10.15;;;15.30;99.90;;;;;;4909476;28;20835;-75
2023/07/02 01:32:16;;;;;;;25.98;10.32;;;15.40;99.90;;;;;;4924489;28;20842;-75
2023/07/02 01:34:43;;;;;;;24.65;10.02;;;15.40;99.90;;;;;;4931307;28;22900;-75
2023/07/02 01:37:09;;;;;;;24.85;10.75;;;15.30;99.90;;;;;;4925468;28;20522;-77
2023/07/02 01:39:35;;;;;;;28.05;11.32;;;15.30;99.90;;;;;;4965771;28;20495;-75
2023/07/02 01:42:09;;;;;;;25.53;10.57;;;15.30;99.90;;;;;;4910791;28;20524;-75
2023/07/02 01:44:35;;;;;;;27.15;11.10;;;15.20;99.90;;;;;;4959201;28;20464;-75
2023/07/02 01:47:01;;;;;;;29.58;12.73;;;15.20;99.90;;;;;;4945227;28;20453;-75
2023/07/02 01:49:27;;;;;;;26.63;10.50;;;15.20;99.90;;;;;;4913879;28;20467;-75
2023/07/02 01:51:54;;;;;;;26.30;10.00;;;15.10;99.90;;;;;;4939080;28;20514;-75
2023/07/02 01:54:21;;;;;;;25.45;10.85;;;15.10;99.90;;;;;;4962005;28;21252;-76
2023/07/02 01:56:47;;;;;;;24.10;11.40;;;14.90;99.90;;;;;;4913760;28;20420;-74
2023/07/02 01:59:14;;;;;;;27.23;10.30;;;15.00;99.90;;;;;;4991017;28;20429;-75
2023/07/02 02:01:40;;;;;;;26.83;11.02;;;15.00;99.90;;;;;;4920858;28;20475;-76
2023/07/02 02:04:10;;;;;;;22.73;10.20;;;15.00;99.90;;;;;;4912815;28;20457;-76
2023/07/02 02:06:37;;;;;;;27.08;10.20;;;14.90;99.90;;;;;;4913465;29;20452;-75
2023/07/02 02:09:05;;;;;;;25.65;10.25;;;14.90;99.90;;;;;;4958493;28;20425;-76
2023/07/02 02:11:37;;;;;;;29.85;11.52;;;14.80;99.90;;;;;;4942498;28;20461;-75
2023/07/02 02:14:02;;;;;;;27.77;11.13;;;14.70;99.90;;;;;;4939338;28;20455;-75
2023/07/02 02:16:28;;;;;;;26.42;10.43;;;14.80;99.90;;;;;;4929614;28;20594;-76
2023/07/02 02:18:54;;;;;;;29.42;11.20;;;14.80;99.90;;;;;;4966471;28;20429;-75
2023/07/02 02:21:20;;;;;;;25.10;10.32;;;14.80;99.90;;;;;;4941501;28;20455;-76
2023/07/02 02:23:47;;;;;;;28.55;10.82;;;14.80;99.90;;;;;;4980019;28;20425;-75
2023/07/02 02:26:12;;;;;;;32.65;11.75;;;14.80;99.90;;;;;;4910307;28;20495;-75
2023/07/02 02:28:38;;;;;;;26.70;11.17;;;14.80;99.90;;;;;;4952391;28;20448;-75
2023/07/02 02:31:04;;;;;;;23.87;10.83;;;14.70;99.90;;;;;;4894850;28;20441;-75
2023/07/02 02:33:30;;;;;;;25.33;10.32;;;14.80;99.90;;;;;;4994812;28;20527;-76
2023/07/02 02:35:56;;;;;;;27.90;11.10;;;14.70;99.90;;;;;;5006939;28;20432;-76
2023/07/02 02:38:21;;;;;;;30.40;10.55;;;14.80;99.90;;;;;;4904860;28;20425;-77
2023/07/02 02:40:47;;;;;;;27.55;12.20;;;14.70;99.90;;;;;;4894101;28;20528;-76
2023/07/02 02:43:13;;;;;;;25.90;11.00;;;14.70;99.90;;;;;;4907601;29;20797;-76
2023/07/02 02:45:39;;;;;;;27.35;12.13;;;14.70;99.90;;;;;;4986989;28;20436;-76
2023/07/02 02:48:04;;;;;;;25.83;10.07;;;14.70;99.90;;;;;;4998735;28;20432;-75
2023/07/02 02:50:30;;;;;;;30.15;10.65;;;14.60;99.90;;;;;;5002466;28;20515;-76
2023/07/02 02:52:56;;;;;;;29.40;10.63;;;14.70;99.90;;;;;;4911573;29;20421;-75
2023/07/02 02:55:22;;;;;;;26.35;10.68;;;14.70;99.90;;;;;;4906418;28;20433;-75
2023/07/02 02:57:47;;;;;;;26.60;10.98;;;14.70;99.90;;;;;;4923377;28;20764;-75
2023/07/02 03:00:13;;;;;;;26.87;10.80;;;14.60;99.90;;;;;;4962823;28;20908;-75
2023/07/02 03:02:39;;;;;;;30.57;11.13;;;14.60;99.90;;;;;;4922522;28;20428;-76
2023/07/02 03:05:06;;;;;;;31.00;11.10;;;14.60;99.90;;;;;;4907913;29;20445;-75
2023/07/02 03:07:32;;;;;;;26.33;11.52;;;14.50;99.90;;;;;;4913890;28;20460;-76
2023/07/02 03:09:58;;;;;;;32.50;10.63;;;14.60;99.90;;;;;;4915705;28;20444;-76
2023/07/02 03:12:26;;;;;;;28.73;11.27;;;14.60;99.90;;;;;;4948247;28;20603;-76
2023/07/02 03:14:54;;;;;;;26.05;10.98;;;14.60;99.90;;;;;;4915409;28;20441;-74
2023/07/02 03:17:20;;;;;;;25.43;9.90;;;14.60;99.90;;;;;;4907031;29;20445;-76
2023/07/02 03:19:46;;;;;;;26.67;11.25;;;14.50;99.90;;;;;;4979364;28;20994;-76
2023/07/02 03:22:13;;;;;;;28.35;11.25;;;14.60;99.90;;;;;;4986333;28;20424;-76
2023/07/02 03:24:38;;;;;;;26.83;10.10;;;14.50;99.90;;;;;;4953977;28;21061;-76
2023/07/02 03:27:04;;;;;;;29.73;9.90;;;14.50;99.90;;;;;;4944042;28;20453;-76
2023/07/02 03:29:31;;;;;;;22.92;9.48;;;14.50;99.90;;;;;;4938297;28;20936;-75
2023/07/02 03:31:57;;;;;;;28.60;10.65;;;14.50;99.90;;;;;;4952161;28;20504;-76
2023/07/02 03:34:23;;;;;;;24.33;10.32;;;14.50;99.90;;;;;;4919422;28;20843;-75
2023/07/02 03:36:49;;;;;;;22.60;9.40;;;14.50;99.90;;;;;;4935433;28;20431;-76
2023/07/02 03:39:16;;;;;;;27.73;10.98;;;14.50;99.90;;;;;;4933361;28;20784;-76
2023/07/02 03:41:41;;;;;;;25.38;10.82;;;14.60;99.90;;;;;;4931773;28;21008;-76
2023/07/02 03:44:07;;;;;;;24.60;9.80;;;14.60;99.90;;;;;;4949943;28;20428;-75
2023/07/02 03:46:33;;;;;;;22.52;9.75;;;14.60;99.90;;;;;;4907730;28;20777;-76
2023/07/02 03:48:59;;;;;;;25.83;10.77;;;14.60;99.90;;;;;;4921394;28;20436;-76
2023/07/02 03:51:25;;;;;;;22.40;9.20;;;14.60;99.90;;;;;;4906692;29;20441;-75
2023/07/02 03:53:50;;;;;;;24.20;9.52;;;14.60;99.90;;;;;;4908038;28;20505;-76
2023/07/02 03:56:16;;;;;;;19.77;9.90;;;14.60;99.90;;;;;;4935072;28;20433;-75
2023/07/02 03:58:42;;;;;;;23.90;10.27;;;14.60;99.90;;;;;;4907977;28;20848;-74
2023/07/02 04:01:08;;;;;;;27.57;9.10;;;14.70;99.90;;;;;;4908381;29;20540;-75
2023/07/02 04:03:34;;;;;;;23.00;10.10;;;14.80;99.90;;;;;;4918491;28;20520;-72
2023/07/02 04:05:59;;;;;;;23.35;10.55;;;14.80;99.90;;;;;;4936238;28;20444;-75
2023/07/02 04:08:27;;;;;;;22.50;9.88;;;14.80;99.90;;;;;;4942458;28;20435;-75
2023/07/02 04:10:54;;;;;;;23.83;9.07;;;14.80;99.90;;;;;;4930731;28;20444;-76
2023/07/02 04:13:20;;;;;;;23.77;9.43;;;14.80;99.90;;;;;;4917436;29;20488;-75
2023/07/02 04:15:47;;;;;;;21.10;9.40;;;14.80;99.90;;;;;;4910541;29;20437;-74
2023/07/02 04:18:12;;;;;;;23.02;9.43;;;14.80;99.90;;;;;;4921706;29;20443;-75
2023/07/02 04:20:38;;;;;;;30.92;10.93;;;14.90;99.90;;;;;;4933130;28;20445;-76
2023/07/02 04:23:07;;;;;;;20.33;9.40;;;14.90;99.90;;;;;;4926674;28;20441;-77
2023/07/02 04:25:33;;;;;;;29.02;10.18;;;14.80;99.90;;;;;;4916260;28;20429;-74
2023/07/02 04:27:59;;;;;;;21.60;8.77;;;14.90;99.90;;;;;;4924964;28;20472;-75
2023/07/02 04:30:25;;;;;;;22.03;8.63;;;15.00;99.90;;;;;;4924872;28;20919;-75
2023/07/02 04:32:54;;;;;;;23.08;8.30;;;15.10;99.90;;;;;;4971183;28;20434;-75
2023/07/02 04:35:20;;;;;;;24.23;8.57;;;15.30;99.90;;;;;;4918706;28;20851;-75
2023/07/02 04:37:46;;;;;;;17.90;7.03;;;15.90;99.90;;;;;;4951709;28;20525;-76
2023/07/02 04:40:12;;;;;;;19.17;8.13;;;15.80;99.90;;;;;;4971556;28;20441;-76
2023/07/02 04:42:46;;;;;;;22.07;8.37;;;15.90;99.90;;;;;;4942498;28;20519;-75
2023/07/02 04:45:14;;;;;;;21.23;8.70;;;15.60;99.90;;;;;;4943578;28;20428;-76
2023/07/02 04:47:42;;;;;;;19.20;7.93;;;15.50;99.90;;;;;;5002562;28;20452;-75
2023/07/02 04:50:07;;;;;;;20.27;7.47;;;15.50;99.90;;;;;;4941088;28;21016;-75
2023/07/02 04:52:33;;;;;;;16.70;7.35;;;15.70;99.90;;;;;;4941768;28;20438;-75
2023/07/02 04:54:59;;;;;;;19.98;8.13;;;15.80;99.90;;;;;;4909352;28;20445;-76
2023/07/02 04:57:25;;;;;;;13.63;6.80;;;15.80;99.90;;;;;;4906128;29;20431;-75
2023/07/02 04:59:50;;;;;;;17.07;7.43;;;15.60;99.90;;;;;;4982079;28;20431;-75
2023/07/02 05:02:16;;;;;;;20.52;7.35;;;15.50;99.90;;;;;;4983159;28;20429;-74
2023/07/02 05:04:42;;;;;;;19.17;7.17;;;15.60;99.90;;;;;;4945108;28;20836;-74
2023/07/02 05:07:07;;;;;;;19.70;6.40;;;15.60;99.90;;;;;;4934494;28;20461;-75
2023/07/02 05:09:33;;;;;;;20.50;7.00;;;15.50;99.90;;;;;;4917262;29;20445;-76
2023/07/02 05:11:59;;;;;;;21.13;7.28;;;15.40;99.90;;;;;;4910304;29;20860;-75
2023/07/02 05:14:24;;;;;;;13.80;6.67;;;15.40;99.90;;;;;;4940327;28;20504;-75
2023/07/02 05:16:50;;;;;;;23.17;7.33;;;15.40;99.90;;;;;;4908733;28;20437;-77
2023/07/02 05:19:16;;;;;;;19.73;7.78;;;15.50;99.90;;;;;;4959305;28;20424;-75
2023/07/02 05:21:42;;;;;;;19.10;7.85;;;15.60;99.90;;;;;;5009540;28;20412;-76
2023/07/02 05:24:08;;;;;;;19.75;7.53;;;15.80;99.90;;;;;;4981681;28;20509;-76
2023/07/02 05:26:34;;;;;;;19.17;6.97;;;15.90;99.90;;;;;;4920743;28;20930;-75
2023/07/02 05:29:01;;;;;;;22.15;8.57;;;15.70;99.90;;;;;;4927999;28;20905;-74
2023/07/02 05:31:26;;;;;;;17.20;7.25;;;15.70;99.90;;;;;;4982737;28;20414;-76
2023/07/02 05:33:53;;;;;;;18.25;7.15;;;15.80;99.90;;;;;;4933495;28;20511;-74
2023/07/02 05:36:19;;;;;;;18.13;7.18;;;15.70;99.90;;;;;;4999646;28;20421;-76
2023/07/02 05:38:45;;;;;;;16.33;7.57;;;15.70;99.90;;;;;;4970421;28;20857;-77
2023/07/02 05:41:11;;;;;;;22.23;8.95;;;15.80;99.90;;;;;;4924450;28;20461;-75
2023/07/02 05:43:36;;;;;;;17.60;7.40;;;15.60;99.90;;;;;;4922692;28;20814;-74
2023/07/02 05:46:02;;;;;;;14.68;7.00;;;15.60;99.90;;;;;;4985398;28;20492;-74
2023/07/02 05:48:28;;;;;;;19.20;7.00;;;15.70;99.90;;;;;;4905022;29;20496;-75
2023/07/02 05:50:54;;;;;;;17.88;6.88;;;15.60;99.90;;;;;;4990406;28;20495;-76
2023/07/02 05:53:20;;;;;;;15.53;6.77;;;15.60;99.90;;;;;;5005473;28;20535;-75
2023/07/02 05:55:46;;;;;;;18.90;7.23;;;15.60;99.90;;;;;;4966323;28;20480;-79
2023/07/02 05:58:12;;;;;;;17.50;7.15;;;15.70;99.90;;;;;;4952870;28;20571;-74
2023/07/02 06:00:41;;;;;;;14.85;6.80;;;15.80;99.90;;;;;;5006252;28;20498;-75
2023/07/02 06:03:07;;;;;;;20.15;8.23;;;15.80;99.90;;;;;;5009904;28;20415;-74
2023/07/02 06:05:33;;;;;;;16.20;6.55;;;15.90;99.90;;;;;;4930877;28;21008;-75
2023/07/02 06:07:58;;;;;;;20.10;7.97;;;16.10;99.90;;;;;;5000023;28;20433;-75
2023/07/02 06:10:24;;;;;;;18.30;7.05;;;16.30;99.90;;;;;;4947725;28;20443;-78
2023/07/02 06:12:50;;;;;;;17.33;7.63;;;16.40;99.90;;;;;;4901912;29;20437;-75
2023/07/02 06:15:15;;;;;;;15.87;6.70;;;16.40;99.90;;;;;;4910709;28;20418;-74
2023/07/02 06:17:41;;;;;;;18.23;6.90;;;16.30;99.90;;;;;;4909496;28;20896;-75
2023/07/02 06:20:07;;;;;;;14.70;6.13;;;16.10;99.90;;;;;;4916788;28;20919;-76
2023/07/02 06:22:33;;;;;;;15.60;6.38;;;16.10;99.90;;;;;;4899206;29;20494;-76
2023/07/02 06:24:59;;;;;;;19.45;6.82;;;16.00;99.90;;;;;;4891477;29;20421;-75
2023/07/02 06:27:25;;;;;;;17.58;7.10;;;16.20;99.90;;;;;;4907635;29;20855;-75
2023/07/02 06:29:51;;;;;;;16.33;6.03;;;16.30;99.90;;;;;;4900327;29;20932;-75
2023/07/02 06:32:17;;;;;;;14.93;6.53;;;16.30;99.90;;;;;;4891639;28;20411;-77
2023/07/02 06:34:43;;;;;;;17.27;6.32;;;16.20;99.90;;;;;;4908210;29;20449;-77
2023/07/02 06:37:08;;;;;;;13.25;6.00;;;16.40;99.90;;;;;;4893418;28;20437;-77
2023/07/02 06:39:34;;;;;;;18.35;5.65;;;16.40;99.90;;;;;;4924058;28;20924;-75
2023/07/02 06:42:00;;;;;;;16.30;5.70;;;16.50;99.90;;;;;;4903609;29;20773;-77
2023/07/02 06:44:25;;;;;;;10.23;3.97;;;16.50;99.90;;;;;;4909782;29;20437;-77
2023/07/02 06:46:51;;;;;;;13.43;4.60;;;16.50;99.90;;;;;;4910198;28;20464;-79
2023/07/02 06:49:21;;;;;;;17.55;5.63;;;16.70;99.90;;;;;;4933122;28;20435;-75
2023/07/02 06:51:46;;;;;;;11.60;4.50;;;16.80;99.90;;;;;;4902907;29;20777;-75
2023/07/02 06:54:13;;;;;;;12.03;4.57;;;16.90;99.90;;;;;;4895366;29;20474;-76
2023/07/02 06:56:38;;;;;;;15.75;5.00;;;16.80;99.90;;;;;;4906194;29;20868;-76
2023/07/02 06:59:04;;;;;;;16.90;5.27;;;16.80;99.90;;;;;;4908356;29;20505;-76
2023/07/02 07:01:30;;;;;;;14.60;4.50;;;16.70;99.90;;;;;;4909086;28;20457;-74
2023/07/02 07:03:55;;;;;;;12.35;4.63;;;17.30;99.90;;;;;;4908004;28;20448;-75
2023/07/02 07:06:21;;;;;;;11.37;4.23;;;18.10;99.90;;;;;;4911803;28;20464;-77
2023/07/02 07:08:47;;;;;;;15.90;5.67;;;18.30;99.90;;;;;;4946438;28;20876;-76
2023/07/02 07:11:13;;;;;;;16.20;4.82;;;18.60;99.90;;;;;;4907995;29;20512;-75
2023/07/02 07:13:38;;;;;;;12.13;4.55;;;17.60;99.90;;;;;;4902347;28;20792;-76
2023/07/02 07:16:04;;;;;;;16.37;4.53;;;17.30;99.90;;;;;;4907927;28;21268;-77
2023/07/02 07:18:30;;;;;;;13.33;4.30;;;17.50;99.90;;;;;;4904260;28;20513;-75
2023/07/02 07:20:55;;;;;;;16.45;5.35;;;18.00;99.90;;;;;;4901696;29;20448;-77
2023/07/02 07:23:21;;;;;;;12.40;4.57;;;19.00;99.90;;;;;;4976361;28;20428;-76
2023/07/02 07:25:47;;;;;;;14.55;4.75;;;19.00;99.90;;;;;;4905057;28;20925;-76
2023/07/02 07:28:15;;;;;;;18.07;5.43;;;17.80;99.90;;;;;;4906146;28;20468;-76
2023/07/02 07:30:44;;;;;;;14.77;4.17;;;17.60;99.90;;;;;;4905773;29;20524;-74
2023/07/02 07:33:10;;;;;;;11.88;3.15;;;17.90;99.90;;;;;;4907600;28;20452;-76
2023/07/02 07:35:36;;;;;;;10.03;3.57;;;19.10;99.90;;;;;;4903687;28;20436;-76
2023/07/02 07:38:02;;;;;;;11.37;3.87;;;19.80;99.90;;;;;;4910096;29;20424;-76
2023/07/02 07:40:28;;;;;;;11.30;3.80;;;20.20;99.90;;;;;;4932149;28;20444;-74
2023/07/02 07:42:54;;;;;;;13.60;4.38;;;20.70;99.90;;;;;;4891165;28;20428;-74
2023/07/02 07:45:20;;;;;;;13.85;4.38;;;19.00;99.90;;;;;;4878024;29;20507;-75
2023/07/02 07:47:46;;;;;;;12.27;4.40;;;18.30;99.90;;;;;;4924597;28;20439;-75
2023/07/02 07:50:11;;;;;;;11.90;4.78;;;17.90;99.90;;;;;;4908961;29;20437;-75
2023/07/02 07:52:42;;;;;;;11.18;4.50;;;17.50;99.90;;;;;;4915892;28;21007;-76
2023/07/02 07:55:08;;;;;;;10.68;4.00;;;17.70;99.90;;;;;;4901468;28;20476;-75
2023/07/02 07:57:35;;;;;;;15.00;5.00;;;18.00;99.90;;;;;;4971181;28;20928;-75
2023/07/02 08:00:04;;;;;;;18.73;5.35;;;18.40;99.90;;;;;;4907853;28;20436;-73
2023/07/02 08:02:29;;;;;;;13.27;4.63;;;18.40;99.90;;;;;;4973192;28;20428;-74
2023/07/02 08:04:55;;;;;;;11.20;5.18;;;18.50;99.90;;;;;;4923722;28;20528;-75
2023/07/02 08:07:21;;;;;;;14.60;5.10;;;18.40;99.90;;;;;;4945734;28;20429;-76
2023/07/02 08:09:47;;;;;;;14.87;5.53;;;18.70;99.90;;;;;;4961430;28;20448;-76
2023/07/02 08:12:13;;;;;;;13.40;4.93;;;18.50;99.90;;;;;;4908450;28;20931;-76
2023/07/02 08:14:39;;;;;;;13.50;5.28;;;18.20;99.90;;;;;;4923667;28;20566;-76
2023/07/02 08:17:04;;;;;;;16.23;4.80;;;17.70;99.90;;;;;;4923296;28;20433;-75
2023/07/02 08:19:30;;;;;;;11.35;4.60;;;17.90;99.90;;;;;;4906969;29;20438;-77
2023/07/02 08:21:55;;;;;;;12.00;5.17;;;18.20;99.90;;;;;;4901274;29;20443;-75
2023/07/02 08:24:21;;;;;;;19.40;5.67;;;18.40;99.90;;;;;;4897410;28;20452;-75
2023/07/02 08:26:49;;;;;;;17.50;5.45;;;18.70;99.90;;;;;;4949284;28;20954;-78
2023/07/02 08:29:15;;;;;;;15.13;4.97;;;18.90;99.90;;;;;;4907604;28;20437;-78
2023/07/02 08:31:41;;;;;;;17.47;4.90;;;18.90;99.90;;;;;;4915491;28;21019;-78
2023/07/02 08:34:07;;;;;;;11.18;4.68;;;18.50;99.90;;;;;;4975069;28;20456;-75
2023/07/02 08:36:32;;;;;;;14.27;4.93;;;18.30;99.90;;;;;;4925652;28;20509;-76
2023/07/02 08:38:58;;;;;;;13.70;5.22;;;18.70;99.90;;;;;;4985721;28;20466;-77
2023/07/02 08:41:24;;;;;;;16.33;4.55;;;18.90;99.90;;;;;;4951647;28;20768;-75
2023/07/02 08:43:51;;;;;;;13.13;5.03;;;19.20;99.90;;;;;;4949532;28;20442;-76
2023/07/02 08:46:17;;;;;;;9.50;3.85;;;19.20;99.90;;;;;;4906878;28;20440;-77
2023/07/02 08:48:43;;;;;;;13.30;4.40;;;18.70;99.90;;;;;;4947239;28;20443;-77
2023/07/02 08:51:09;;;;;;;13.77;4.57;;;18.50;99.90;;;;;;5003757;28;20433;-78
2023/07/02 08:53:35;;;;;;;13.02;3.90;;;18.30;99.90;;;;;;5007679;28;20495;-76
2023/07/02 08:56:03;;;;;;;14.77;5.28;;;17.60;99.90;;;;;;4905782;28;20452;-76
2023/07/02 08:58:29;;;;;;;12.35;4.43;;;17.30;99.90;;;;;;4911293;28;20736;-76
2023/07/02 09:01:05;;;;;;;12.98;4.90;;;17.30;99.90;;;;;;4928017;28;20432;-76
2023/07/02 09:03:31;;;;;;;12.00;4.88;;;17.60;99.90;;;;;;5009839;28;20481;-76
2023/07/02 09:05:57;;;;;;;10.77;4.80;;;17.90;99.90;;;;;;4937414;28;20922;-76
2023/07/02 09:08:27;;;;;;;11.95;4.65;;;18.00;99.90;;;;;;5010867;28;20405;-75
2023/07/02 09:11:14;;;;;;;11.73;3.97;;;18.00;99.90;;;;;;4979408;28;20452;-75
2023/07/02 09:13:52;;;;;;;11.88;4.28;;;17.90;99.90;;;;;;4910032;29;20434;-77
2023/07/02 09:16:22;;;;;;;13.60;4.00;;;17.90;99.90;;;;;;4935335;28;20803;-76
2023/07/02 09:18:57;;;;;;;14.48;4.90;;;17.80;99.90;;;;;;4993783;28;20424;-75
2023/07/02 09:21:25;;;;;;;10.85;3.03;;;17.70;99.90;;;;;;4954885;28;20859;-76
2023/07/02 09:23:51;;;;;;;11.73;4.13;;;17.80;99.90;;;;;;4924700;28;20469;-78
2023/07/02 09:26:23;;;;;;;9.60;3.95;;;18.30;99.90;;;;;;4928797;28;20468;-77
2023/07/02 09:28:49;;;;;;;14.18;4.43;;;18.60;99.90;;;;;;4993447;28;20470;-75
2023/07/02 09:31:15;;;;;;;9.55;3.53;;;18.70;99.90;;;;;;4984525;28;20452;-76
2023/07/02 09:33:42;;;;;;;11.27;3.77;;;18.40;99.90;;;;;;4911443;29;20441;-74
2023/07/02 09:36:07;;;;;;;10.07;3.33;;;18.20;99.90;;;;;;4916152;28;20431;-76
2023/07/02 09:38:33;;;;;;;12.17;4.27;;;18.30;99.90;;;;;;5010697;28;20401;-75
2023/07/02 09:41:00;;;;;;;13.17;4.67;;;18.10;99.90;;;;;;4981834;28;20449;-76
2023/07/02 09:43:26;;;;;;;14.35;4.70;;;17.90;99.90;;;;;;5009599;28;20405;-75
2023/07/02 09:45:54;;;;;;;11.57;4.70;;;17.60;99.90;;;;;;4967405;28;20453;-76
2023/07/02 09:48:25;;;;;;;13.23;5.25;;;18.40;99.90;;;;;;4999472;28;20429;-76
2023/07/02 09:50:51;;;;;;;10.60;4.63;;;18.80;99.90;;;;;;4963568;28;20442;-76
2023/07/02 09:53:17;;;;;;;10.68;3.80;;;18.30;99.90;;;;;;4918945;28;20437;-76
2023/07/02 09:55:43;;;;;;;14.60;4.70;;;18.00;99.90;;;;;;4910903;29;20429;-74
2023/07/02 09:58:09;;;;;;;11.07;3.90;;;17.70;99.90;;;;;;4989748;28;20475;-78
2023/07/02 10:00:35;;;;;;;12.07;4.40;;;17.70;99.90;;;;;;4913168;28;20429;-76
2023/07/02 10:03:01;;;;;;;15.63;4.88;;;18.00;99.90;;;;;;4973822;28;20423;-76
2023/07/02 10:05:31;;;;;;;9.27;3.67;;;18.50;99.90;;;;;;5007418;28;20452;-75
2023/07/02 10:07:59;;;;;;;12.55;4.88;;;18.50;99.90;;;;;;5005747;28;20452;-78
2023/07/02 10:10:31;;;;;;;11.65;4.35;;;18.30;99.90;;;;;;4953429;28;20485;-75
2023/07/02 10:12:58;;;;;;;13.87;4.70;;;18.60;99.90;;;;;;4945419;28;20459;-74
2023/07/02 10:15:28;;;;;;;11.45;3.83;;;18.70;99.90;;;;;;4997971;28;20888;-77
2023/07/02 10:17:58;;;;;;;12.43;3.60;;;18.60;99.90;;;;;;4955950;28;20413;-74
2023/07/02 10:20:38;;;;;;;10.38;3.90;;;18.60;99.90;;;;;;4955957;28;20444;-75
2023/07/02 10:23:06;;;;;;;8.32;3.33;;;18.30;99.90;;;;;;4920645;28;20436;-75
2023/07/02 10:25:34;;;;;;;9.10;3.75;;;18.30;99.90;;;;;;4893132;29;20475;-76
2023/07/02 10:28:01;;;;;;;13.95;4.85;;;18.50;99.90;;;;;;4892689;29;20476;-77
2023/07/02 10:30:38;;;;;;;12.93;4.27;;;18.30;99.90;;;;;;4910754;28;20951;-77
2023/07/02 10:33:11;;;;;;;13.43;4.18;;;18.20;99.90;;;;;;4951449;28;20429;-76
2023/07/02 10:35:38;;;;;;;11.55;4.32;;;18.10;99.90;;;;;;4910777;29;20479;-74
2023/07/02 10:38:06;;;;;;;11.40;4.88;;;18.10;99.90;;;;;;4909706;28;20426;-76
2023/07/02 10:40:33;;;;;;;14.43;4.93;;;18.20;99.90;;;;;;4893729;28;20788;-76
2023/07/02 10:42:59;;;;;;;11.52;4.32;;;18.70;99.90;;;;;;4954833;28;20432;-76
2023/07/02 10:45:33;;;;;;;11.75;4.30;;;18.50;99.90;;;;;;4991562;28;20425;-77
2023/07/02 10:47:58;;;;;;;11.65;4.45;;;18.30;99.90;;;;;;4915050;28;20437;-77
2023/07/02 10:50:26;;;;;;;10.07;4.00;;;18.00;99.90;;;;;;4909008;28;20858;-76
2023/07/02 10:52:53;;;;;;;11.00;4.20;;;18.00;99.90;;;;;;4940563;28;20424;-74
2023/07/02 10:55:20;;;;;;;14.55;4.95;;;18.10;99.90;;;;;;5009318;28;20416;-75
2023/07/02 10:57:47;;;;;;;10.02;3.78;;;18.00;99.90;;;;;;4946334;28;20464;-76
2023/07/02 11:00:13;;;;;;;14.20;3.63;;;18.10;99.90;;;;;;4910279;28;20417;-76
2023/07/02 11:02:40;;;;;;;9.68;3.13;;;18.30;99.90;;;;;;4925787;28;20485;-76
2023/07/02 11:05:06;;;;;;;9.65;3.30;;;18.50;99.90;;;;;;4949252;28;20441;-74
2023/07/02 11:07:35;;;;;;;9.20;3.53;;;18.20;99.90;;;;;;4907591;29;20478;-76
2023/07/02 11:10:01;;;;;;;13.43;3.83;;;18.20;99.90;;;;;;4911162;29;20444;-75
2023/07/02 11:12:31;;;;;;;10.33;3.43;;;18.00;99.90;;;;;;4937376;28;20413;-75
2023/07/02 11:15:19;;;;;;;8.83;3.27;;;18.30;99.90;;;;;;4964603;28;20440;-74
2023/07/02 11:17:46;;;;;;;12.20;3.33;;;18.00;99.90;;;;;;4919064;28;20480;-76
2023/07/02 11:20:13;;;;;;;9.20;3.00;;;18.10;99.90;;;;;;5004670;28;20425;-74
2023/07/02 11:22:39;;;;;;;13.18;4.35;;;17.90;99.90;;;;;;5001466;28;21183;-77
2023/07/02 11:25:11;;;;;;;9.82;3.53;;;18.00;99.90;;;;;;4954607;28;20444;-74
2023/07/02 11:27:37;;;;;;;10.05;3.42;;;18.20;99.90;;;;;;4893255;28;20459;-76
2023/07/02 11:30:03;;;;;;;11.35;2.90;;;18.30;99.90;;;;;;5008279;28;20483;-75
2023/07/02 11:32:29;;;;;;;11.90;3.53;;;18.10;99.90;;;;;;4998376;28;20428;-74
2023/07/02 11:34:56;;;;;;;9.65;3.45;;;18.30;99.90;;;;;;4946090;28;20464;-75
2023/07/02 11:37:22;;;;;;;11.40;3.85;;;18.50;99.90;;;;;;4909213;29;20425;-75
2023/07/02 11:39:48;;;;;;;11.23;3.00;;;18.40;99.90;;;;;;4989651;28;20444;-76
2023/07/02 11:42:17;;;;;;;11.82;3.53;;;18.30;99.90;;;;;;4889777;28;20429;-76
2023/07/02 11:44:42;;;;;;;9.68;3.67;;;18.60;99.90;;;;;;4908455;28;20448;-76
2023/07/02 11:47:08;;;;;;;9.10;3.13;;;18.70;99.90;;;;;;4908312;28;20428;-76
2023/07/02 11:49:34;;;;;;;8.63;3.00;;;19.10;99.90;;;;;;4979137;28;20421;-74
2023/07/02 11:52:00;;;;;;;11.45;3.00;;;19.10;99.90;;;;;;4947686;28;20428;-75
2023/07/02 11:54:25;;;;;;;13.48;4.00;;;18.90;99.90;;;;;;4973356;28;20432;-77
2023/07/02 11:56:51;;;;;;;9.77;2.93;;;18.60;99.90;;;;;;4980357;28;20438;-75
2023/07/02 11:59:17;;;;;;;10.55;2.72;;;18.50;99.90;;;;;;4941902;28;20432;-76
2023/07/02 12:01:42;;;;;;;11.80;3.28;;;18.40;99.90;;;;;;4990022;28;20408;-77
2023/07/02 12:04:11;;;;;;;9.93;2.47;;;18.30;99.90;;;;;;4928557;28;20452;-74
2023/07/02 12:06:37;;;;;;;7.50;3.27;;;18.40;99.90;;;;;;4909597;28;21013;-77
2023/07/02 12:09:03;;;;;;;7.23;2.83;;;18.20;99.90;;;;;;4908911;29;20453;-74
2023/07/02 12:11:29;;;;;;;6.50;3.13;;;18.40;99.90;;;;;;4893166;28;20916;-74
2023/07/02 12:13:54;;;;;;;8.05;3.35;;;19.20;99.90;;;;;;4906888;28;20425;-76
2023/07/02 12:16:20;;;;;;;8.52;3.92;;;19.40;99.90;;;;;;4891054;29;20510;-78
2023/07/02 12:18:46;;;;;;;8.37;3.20;;;19.80;99.90;;;;;;4913850;28;20461;-76
2023/07/02 12:21:11;;;;;;;10.00;3.83;;;19.70;99.90;;;;;;4914490;28;20433;-75
2023/07/02 12:23:37;;;;;;;9.77;3.47;;;18.90;99.90;;;;;;4910093;28;21053;-75
2023/07/02 12:26:03;;;;;;;12.97;4.80;;;19.60;99.90;;;;;;4966209;28;20439;-80
2023/07/02 12:28:28;;;;;;;11.05;4.65;;;19.60;99.90;;;;;;4957228;28;20795;-78
2023/07/02 12:30:54;;;;;;;7.78;3.50;;;19.20;99.90;;;;;;4908019;29;20443;-79
2023/07/02 12:33:20;;;;;;;13.30;5.30;;;19.00;99.90;;;;;;4893999;29;20427;-83